Time;durP1;ratioP1;P1;durP2;ratioP2;P2;SDS_P1;SDS_P2;PMS_P1;PMS_P2;Temp;Humidity;BMP_temperature;BMP_pressure;BME280_temperature;BME280_humidity;BME280_pressure;Samples;Min_cycle;Max_cycle;Signal;HPM_P1;HPM_P2
2023/07/13 00:01:13;;;;;;;7.50;4.90;;;;;;;;;;107586;1254;22573;-81
2023/07/13 00:03:41;;;;;;;6.90;5.60;;;;;;;;;;107492;1256;22496;-81
2023/07/13 00:06:07;;;;;;;7.00;4.60;;;;;;;;;;107637;1251;23672;-85
2023/07/13 00:08:33;;;;;;;7.40;4.90;;;;;;;;;;107641;1251;22654;-82
2023/07/13 00:11:03;;;;;;;6.20;4.70;;;;;;;;;;107472;1251;22710;-84
2023/07/13 00:13:30;;;;;;;6.60;4.50;;;;;;;;;;107528;1251;25506;-77
2023/07/13 00:15:57;;;;;;;9.10;5.20;;;;;;;;;;107512;1251;22628;-77
2023/07/13 00:18:23;;;;;;;7.00;4.60;;;;;;;;;;107518;1252;25236;-77
2023/07/13 00:20:50;;;;;;;7.40;4.80;;;;;;;;;;107494;1251;22658;-77
2023/07/13 00:23:17;;;;;;;11.40;7.00;;;;;;;;;;107535;1254;22524;-77
2023/07/13 00:25:43;;;;;;;9.70;6.10;;;;;;;;;;107554;1251;22527;-77
2023/07/13 00:28:09;;;;;;;7.30;5.10;;;;;;;;;;107534;1251;23029;-77
2023/07/13 00:30:36;;;;;;;6.70;5.20;;;;;;;;;;107540;1252;24340;-77
2023/07/13 00:33:02;;;;;;;6.10;4.50;;;;;;;;;;107538;1251;22664;-77
2023/07/13 00:35:30;;;;;;;13.60;6.30;;;;;;;;;;107519;1254;22738;-77
2023/07/13 00:37:56;;;;;;;10.80;6.30;;;;;;;;;;107535;1266;22587;-76
2023/07/13 00:40:23;;;;;;;8.90;6.50;;;;;;;;;;107503;1267;22544;-77
2023/07/13 00:42:51;;;;;;;10.20;6.60;;;;;;;;;;107543;1254;25226;-77
2023/07/13 00:45:17;;;;;;;17.30;7.70;;;;;;;;;;107456;1253;22608;-77
2023/07/13 00:47:44;;;;;;;14.30;6.90;;;;;;;;;;107548;1251;23355;-77
2023/07/13 00:50:11;;;;;;;9.80;6.40;;;;;;;;;;107562;1251;22552;-77
2023/07/13 00:52:39;;;;;;;7.00;5.20;;;;;;;;;;107537;1270;22605;-77
2023/07/13 00:55:06;;;;;;;7.00;4.00;;;;;;;;;;107490;1254;23181;-77
2023/07/13 00:57:33;;;;;;;7.70;4.90;;;;;;;;;;107523;1251;22637;-77
2023/07/13 01:00:00;;;;;;;7.70;4.40;;;;;;;;;;107553;1253;22522;-76
2023/07/13 01:02:27;;;;;;;7.10;4.10;;;;;;;;;;107439;1249;22944;-77
2023/07/13 01:04:53;;;;;;;7.90;5.40;;;;;;;;;;107696;1254;23290;-77
2023/07/13 01:07:20;;;;;;;7.40;4.90;;;;;;;;;;107550;1253;22690;-77
2023/07/13 01:09:46;;;;;;;8.00;4.70;;;;;;;;;;107847;1255;26648;-76
2023/07/13 01:12:13;;;;;;;7.80;4.60;;;;;;;;;;107631;1250;22551;-77
2023/07/13 01:14:40;;;;;;;6.30;5.00;;;;;;;;;;107420;1253;24413;-81
2023/07/13 01:17:08;;;;;;;7.20;4.90;;;;;;;;;;107510;1253;22949;-81
2023/07/13 01:19:36;;;;;;;7.90;4.90;;;;;;;;;;107608;1254;25356;-80
2023/07/13 01:22:04;;;;;;;6.40;4.40;;;;;;;;;;107448;1251;25500;-79
2023/07/13 01:24:31;;;;;;;10.70;4.90;;;;;;;;;;107527;1251;22551;-80
2023/07/13 01:26:57;;;;;;;7.10;4.60;;;;;;;;;;107570;1254;22547;-80
2023/07/13 01:29:23;;;;;;;6.50;4.90;;;;;;;;;;107568;1250;22530;-80
2023/07/13 01:31:50;;;;;;;9.30;5.70;;;;;;;;;;107508;1251;22652;-80
2023/07/13 01:34:16;;;;;;;10.30;4.80;;;;;;;;;;107526;1251;22649;-80
2023/07/13 01:36:43;;;;;;;6.80;5.60;;;;;;;;;;107517;1252;22595;-80
2023/07/13 01:39:09;;;;;;;7.80;5.70;;;;;;;;;;107593;1252;24397;-80
2023/07/13 01:41:36;;;;;;;6.00;4.20;;;;;;;;;;107523;1253;23006;-80
2023/07/13 01:44:19;;;;;;;6.40;4.80;;;;;;;;;;107588;1254;27412;-80
2023/07/13 01:46:46;;;;;;;5.20;4.20;;;;;;;;;;107562;1254;23154;-80
2023/07/13 01:49:12;;;;;;;8.00;5.90;;;;;;;;;;107544;1254;23010;-80
2023/07/13 01:51:39;;;;;;;10.80;4.70;;;;;;;;;;107588;1251;25470;-80
2023/07/13 01:54:05;;;;;;;7.50;5.10;;;;;;;;;;107679;1254;22548;-80
2023/07/13 01:56:31;;;;;;;6.40;4.90;;;;;;;;;;107610;1254;25398;-80
2023/07/13 01:58:58;;;;;;;9.10;4.90;;;;;;;;;;107660;1250;23151;-80
2023/07/13 02:01:24;;;;;;;6.70;4.50;;;;;;;;;;107753;1253;22638;-78
2023/07/13 02:03:51;;;;;;;10.60;5.90;;;;;;;;;;107533;1253;24085;-81
2023/07/13 02:06:17;;;;;;;7.80;5.80;;;;;;;;;;107536;1252;24204;-78
2023/07/13 02:08:44;;;;;;;7.40;5.00;;;;;;;;;;107769;1251;23000;-78
2023/07/13 02:11:10;;;;;;;6.80;5.20;;;;;;;;;;107539;1251;22564;-78
2023/07/13 02:13:37;;;;;;;7.10;4.70;;;;;;;;;;107702;1251;22534;-78
2023/07/13 02:16:03;;;;;;;8.90;5.20;;;;;;;;;;107569;1253;22597;-78
2023/07/13 02:18:29;;;;;;;7.90;5.00;;;;;;;;;;107601;1251;24180;-80
2023/07/13 02:20:56;;;;;;;9.90;4.70;;;;;;;;;;107553;1252;25490;-78
2023/07/13 02:23:22;;;;;;;8.30;4.50;;;;;;;;;;108100;1251;22220;-79
2023/07/13 02:25:49;;;;;;;6.20;4.50;;;;;;;;;;107536;1255;22648;-78
2023/07/13 02:28:15;;;;;;;9.80;4.80;;;;;;;;;;107623;1252;22696;-80
2023/07/13 02:30:42;;;;;;;7.90;4.40;;;;;;;;;;107535;1255;25472;-78
2023/07/13 02:33:08;;;;;;;7.90;4.40;;;;;;;;;;107565;1252;25510;-80
2023/07/13 02:35:35;;;;;;;8.30;5.00;;;;;;;;;;107547;1255;25426;-78
2023/07/13 02:38:01;;;;;;;5.70;4.50;;;;;;;;;;107715;1251;25476;-80
2023/07/13 02:40:27;;;;;;;7.00;4.90;;;;;;;;;;108502;1252;22555;-78
2023/07/13 02:42:54;;;;;;;6.10;4.20;;;;;;;;;;107578;1251;23171;-78
2023/07/13 02:45:20;;;;;;;6.70;4.90;;;;;;;;;;108603;1253;23042;-78
2023/07/13 02:47:47;;;;;;;6.60;4.60;;;;;;;;;;108328;1253;26521;-78
2023/07/13 02:50:13;;;;;;;7.10;5.40;;;;;;;;;;108469;1251;22535;-79
2023/07/13 02:52:39;;;;;;;5.80;4.50;;;;;;;;;;108322;1251;22372;-79
2023/07/13 02:55:06;;;;;;;6.80;4.20;;;;;;;;;;107770;1251;22540;-79
2023/07/13 02:57:33;;;;;;;6.20;4.20;;;;;;;;;;107576;1255;22539;-78
2023/07/13 03:00:00;;;;;;;6.90;4.30;;;;;;;;;;107574;1253;24222;-80
2023/07/13 03:02:28;;;;;;;7.00;4.10;;;;;;;;;;107567;1251;22540;-78
2023/07/13 03:04:55;;;;;;;8.20;4.40;;;;;;;;;;107523;1254;22524;-78
2023/07/13 03:07:21;;;;;;;6.40;4.20;;;;;;;;;;107776;1251;22597;-78
2023/07/13 03:09:48;;;;;;;7.10;5.20;;;;;;;;;;107597;1253;22567;-77
2023/07/13 03:12:14;;;;;;;6.90;5.60;;;;;;;;;;107525;1252;22518;-80
2023/07/13 03:14:40;;;;;;;6.70;5.20;;;;;;;;;;107575;1251;22602;-78
2023/07/13 03:17:07;;;;;;;8.10;5.20;;;;;;;;;;107493;1255;23873;-78
2023/07/13 03:19:33;;;;;;;9.30;5.70;;;;;;;;;;108017;1251;23668;-79
2023/07/13 03:22:00;;;;;;;9.30;6.30;;;;;;;;;;107531;1253;22548;-80
2023/07/13 03:24:26;;;;;;;8.80;4.80;;;;;;;;;;108320;1252;22547;-78
2023/07/13 03:26:52;;;;;;;7.80;4.70;;;;;;;;;;107586;1251;25364;-80
2023/07/13 03:29:19;;;;;;;5.60;4.00;;;;;;;;;;107579;1251;22573;-78
2023/07/13 03:31:45;;;;;;;7.30;4.90;;;;;;;;;;107530;1251;22543;-79
2023/07/13 03:34:11;;;;;;;6.50;4.80;;;;;;;;;;107758;1251;22958;-80
2023/07/13 03:36:38;;;;;;;7.70;4.50;;;;;;;;;;107603;1251;24371;-78
2023/07/13 03:39:08;;;;;;;6.10;4.70;;;;;;;;;;108994;1251;22876;-79
2023/07/13 03:41:34;;;;;;;5.80;4.10;;;;;;;;;;107968;1251;22542;-79
2023/07/13 03:44:00;;;;;;;16.40;10.00;;;;;;;;;;107573;1251;23489;-78
2023/07/13 03:46:27;;;;;;;7.10;5.30;;;;;;;;;;107544;1252;22642;-78
2023/07/13 03:48:53;;;;;;;8.90;4.40;;;;;;;;;;107600;1253;22491;-78
2023/07/13 03:51:20;;;;;;;5.90;4.60;;;;;;;;;;107553;1251;24231;-80
2023/07/13 03:53:47;;;;;;;8.10;4.70;;;;;;;;;;107513;1253;25358;-78
2023/07/13 03:56:15;;;;;;;6.70;4.50;;;;;;;;;;107627;1252;25198;-78
2023/07/13 03:58:42;;;;;;;8.20;4.70;;;;;;;;;;107987;1253;23115;-78
2023/07/13 04:01:09;;;;;;;9.20;5.40;;;;;;;;;;108438;1251;23957;-81
2023/07/13 04:03:35;;;;;;;7.30;4.50;;;;;;;;;;107534;1253;22715;-80
2023/07/13 04:06:02;;;;;;;6.70;4.50;;;;;;;;;;107508;1253;23364;-80
2023/07/13 04:08:34;;;;;;;8.00;4.40;;;;;;;;;;107479;1251;23363;-78
2023/07/13 04:11:01;;;;;;;6.30;4.50;;;;;;;;;;107503;1252;22613;-80
2023/07/13 04:13:27;;;;;;;8.90;4.40;;;;;;;;;;107571;1253;22518;-78
2023/07/13 04:15:53;;;;;;;6.70;4.70;;;;;;;;;;107565;1253;23284;-80
2023/07/13 04:18:20;;;;;;;6.30;5.10;;;;;;;;;;107532;1253;22639;-78
2023/07/13 04:20:47;;;;;;;5.70;4.50;;;;;;;;;;107517;1255;22649;-80
2023/07/13 04:23:13;;;;;;;6.70;4.00;;;;;;;;;;107559;1250;22631;-80
2023/07/13 04:25:42;;;;;;;6.00;3.80;;;;;;;;;;107609;1251;24245;-80
2023/07/13 04:28:09;;;;;;;6.20;4.40;;;;;;;;;;107590;1254;22548;-78
2023/07/13 04:30:35;;;;;;;7.90;4.60;;;;;;;;;;107542;1252;22537;-80
2023/07/13 04:33:02;;;;;;;5.50;4.00;;;;;;;;;;107643;1253;24379;-81
2023/07/13 04:35:28;;;;;;;5.50;4.20;;;;;;;;;;107516;1252;24224;-80
2023/07/13 04:37:54;;;;;;;5.10;4.30;;;;;;;;;;107545;1249;22544;-80
2023/07/13 04:40:21;;;;;;;5.70;3.90;;;;;;;;;;107570;1253;22563;-80
2023/07/13 04:42:47;;;;;;;6.00;4.00;;;;;;;;;;107593;1253;22564;-78
2023/07/13 04:45:14;;;;;;;5.50;3.80;;;;;;;;;;107527;1251;22547;-78
2023/07/13 04:47:40;;;;;;;6.40;4.30;;;;;;;;;;107545;1251;22568;-80
2023/07/13 04:50:07;;;;;;;5.90;3.90;;;;;;;;;;107576;1254;22536;-80
2023/07/13 04:52:34;;;;;;;7.80;4.10;;;;;;;;;;107593;1252;23490;-80
2023/07/13 04:55:00;;;;;;;4.90;3.80;;;;;;;;;;107537;1253;22518;-78
2023/07/13 04:57:27;;;;;;;7.00;3.90;;;;;;;;;;107485;1250;23566;-78
2023/07/13 04:59:53;;;;;;;5.60;4.40;;;;;;;;;;107543;1253;22530;-79
2023/07/13 05:02:20;;;;;;;11.20;4.20;;;;;;;;;;107580;1251;24275;-78
2023/07/13 05:04:47;;;;;;;7.10;4.60;;;;;;;;;;107552;1251;22641;-78
2023/07/13 05:07:13;;;;;;;8.90;5.20;;;;;;;;;;107599;1252;24372;-78
2023/07/13 05:09:40;;;;;;;9.80;5.40;;;;;;;;;;107602;1255;22636;-80
2023/07/13 05:12:07;;;;;;;8.80;4.90;;;;;;;;;;107550;1254;22540;-80
2023/07/13 05:14:34;;;;;;;7.90;5.20;;;;;;;;;;108242;1251;24403;-80
2023/07/13 05:17:00;;;;;;;5.80;4.20;;;;;;;;;;107515;1251;24383;-78
2023/07/13 05:19:26;;;;;;;9.40;4.70;;;;;;;;;;107520;1255;22559;-78
2023/07/13 05:21:53;;;;;;;6.70;4.30;;;;;;;;;;107524;1255;22531;-80
2023/07/13 05:24:19;;;;;;;10.30;5.20;;;;;;;;;;107549;1250;22539;-80
2023/07/13 05:26:46;;;;;;;6.00;4.20;;;;;;;;;;107523;1253;22658;-80
2023/07/13 05:29:12;;;;;;;6.10;4.30;;;;;;;;;;107635;1254;22524;-80
2023/07/13 05:31:39;;;;;;;8.00;3.70;;;;;;;;;;107590;1254;24353;-78
2023/07/13 05:34:05;;;;;;;6.70;4.20;;;;;;;;;;107595;1253;23379;-80
2023/07/13 05:36:32;;;;;;;8.50;4.70;;;;;;;;;;107526;1253;23287;-79
2023/07/13 05:38:58;;;;;;;5.10;4.30;;;;;;;;;;107587;1251;22645;-78
2023/07/13 05:41:24;;;;;;;6.70;4.70;;;;;;;;;;107562;1251;24268;-80
2023/07/13 05:43:51;;;;;;;5.70;3.90;;;;;;;;;;107571;1251;25225;-79
2023/07/13 05:46:17;;;;;;;6.50;4.10;;;;;;;;;;107589;1255;22538;-78
2023/07/13 05:48:44;;;;;;;6.00;4.00;;;;;;;;;;107589;1252;25245;-80
2023/07/13 05:51:10;;;;;;;8.40;4.50;;;;;;;;;;107617;1253;25057;-79
2023/07/13 05:53:36;;;;;;;8.40;4.50;;;;;;;;;;107572;1253;24212;-81
2023/07/13 05:56:03;;;;;;;7.50;5.10;;;;;;;;;;107555;1251;22534;-79
2023/07/13 05:58:29;;;;;;;6.20;4.30;;;;;;;;;;107671;1253;22793;-80
2023/07/13 06:01:06;;;;;;;6.00;4.50;;;;;;;;;;107618;1254;22650;-80
2023/07/13 06:03:32;;;;;;;8.80;3.90;;;;;;;;;;107501;1256;25342;-77
2023/07/13 06:06:02;;;;;;;7.40;4.20;;;;;;;;;;107529;1251;25403;-78
2023/07/13 06:08:29;;;;;;;7.10;4.30;;;;;;;;;;107551;1255;24231;-80
2023/07/13 06:11:01;;;;;;;6.50;4.30;;;;;;;;;;107530;1251;27207;-78
2023/07/13 06:13:27;;;;;;;9.10;4.30;;;;;;;;;;107807;1255;25361;-80
2023/07/13 06:15:53;;;;;;;7.90;4.20;;;;;;;;;;107482;1251;24396;-79
2023/07/13 06:18:20;;;;;;;6.10;3.80;;;;;;;;;;107665;1253;22643;-80
2023/07/13 06:20:46;;;;;;;4.30;3.50;;;;;;;;;;107704;1255;22530;-78
2023/07/13 06:23:13;;;;;;;7.90;4.40;;;;;;;;;;107763;1255;22560;-78
2023/07/13 06:25:40;;;;;;;9.00;3.90;;;;;;;;;;107640;1253;22639;-78
2023/07/13 06:28:06;;;;;;;5.60;4.20;;;;;;;;;;107592;1251;22530;-78
2023/07/13 06:30:32;;;;;;;8.20;4.30;;;;;;;;;;107735;1255;26585;-78
2023/07/13 06:32:59;;;;;;;7.20;4.40;;;;;;;;;;107757;1255;25292;-78
2023/07/13 06:35:26;;;;;;;7.30;4.30;;;;;;;;;;108813;1255;22211;-80
2023/07/13 06:37:52;;;;;;;6.90;4.40;;;;;;;;;;110520;1251;23158;-79
2023/07/13 06:40:18;;;;;;;9.00;4.80;;;;;;;;;;109982;1253;25398;-80
2023/07/13 06:42:45;;;;;;;8.70;4.10;;;;;;;;;;107771;1255;25396;-79
2023/07/13 06:45:11;;;;;;;7.00;4.10;;;;;;;;;;107881;1252;23081;-80
2023/07/13 06:47:37;;;;;;;6.80;4.10;;;;;;;;;;107839;1255;22561;-79
2023/07/13 06:50:04;;;;;;;7.50;3.80;;;;;;;;;;107685;1252;25934;-80
2023/07/13 06:52:30;;;;;;;5.20;3.90;;;;;;;;;;107757;1255;22645;-78
2023/07/13 06:54:57;;;;;;;11.00;4.90;;;;;;;;;;107787;1255;22628;-80
2023/07/13 06:57:24;;;;;;;8.40;3.50;;;;;;;;;;107824;1256;22531;-80
2023/07/13 06:59:50;;;;;;;6.70;3.80;;;;;;;;;;107568;1255;22647;-80
2023/07/13 07:02:17;;;;;;;8.20;4.10;;;;;;;;;;107781;1255;23136;-80
2023/07/13 07:04:43;;;;;;;5.60;3.50;;;;;;;;;;107859;1251;22633;-80
2023/07/13 07:07:09;;;;;;;3.80;3.10;;;;;;;;;;107695;1253;223203;-80
2023/07/13 07:09:36;;;;;;;7.00;4.00;;;;;;;;;;107844;1251;22636;-80
2023/07/13 07:12:03;;;;;;;5.30;3.90;;;;;;;;;;107883;1252;22541;-80
2023/07/13 07:14:29;;;;;;;6.00;3.80;;;;;;;;;;107647;1251;22557;-80
2023/07/13 07:16:55;;;;;;;5.40;3.50;;;;;;;;;;107769;1251;22675;-80
2023/07/13 07:19:22;;;;;;;7.90;3.90;;;;;;;;;;107664;1253;24372;-79
2023/07/13 07:21:48;;;;;;;7.00;4.10;;;;;;;;;;108201;1257;24884;-79
2023/07/13 07:24:15;;;;;;;4.80;3.70;;;;;;;;;;108457;1251;22567;-79
2023/07/13 07:26:42;;;;;;;7.50;3.60;;;;;;;;;;107744;1255;22660;-80
2023/07/13 07:29:08;;;;;;;7.10;3.60;;;;;;;;;;107658;1255;23367;-78
2023/07/13 07:31:37;;;;;;;4.80;3.60;;;;;;;;;;107673;1251;23357;-78
2023/07/13 07:34:03;;;;;;;8.60;4.40;;;;;;;;;;109068;1251;22282;-81
2023/07/13 07:36:47;;;;;;;7.10;4.60;;;;;;;;;;110606;1251;22237;-79
2023/07/13 07:42:36;;;;;;;9.30;4.90;;;;;;;;;;107634;1256;22557;-80
2023/07/13 07:45:03;;;;;;;6.00;3.40;;;;;;;;;;107674;1251;22671;-78
2023/07/13 07:47:29;;;;;;;7.60;3.60;;;;;;;;;;107693;1251;22667;-80
2023/07/13 07:49:55;;;;;;;4.90;3.60;;;;;;;;;;108547;1255;22653;-80
2023/07/13 07:52:22;;;;;;;4.30;3.50;;;;;;;;;;107625;1255;24894;-80
2023/07/13 07:54:48;;;;;;;4.20;3.20;;;;;;;;;;108548;1254;25327;-79
2023/07/13 07:57:15;;;;;;;8.70;3.90;;;;;;;;;;107736;1251;22486;-78
2023/07/13 07:59:41;;;;;;;4.70;3.50;;;;;;;;;;107675;1250;25428;-80
2023/07/13 08:02:08;;;;;;;9.30;3.60;;;;;;;;;;107568;1258;22531;-80
2023/07/13 08:04:35;;;;;;;5.50;3.40;;;;;;;;;;109038;1255;22544;-78
2023/07/13 08:07:02;;;;;;;4.60;3.70;;;;;;;;;;107715;1251;22638;-80
2023/07/13 08:09:29;;;;;;;6.20;3.80;;;;;;;;;;107652;1251;24433;-78
2023/07/13 08:11:55;;;;;;;7.70;3.60;;;;;;;;;;107606;1251;23082;-80
2023/07/13 08:14:22;;;;;;;5.10;3.50;;;;;;;;;;108396;1254;22524;-80
2023/07/13 08:16:49;;;;;;;4.80;3.60;;;;;;;;;;107705;1254;22531;-79
2023/07/13 08:19:15;;;;;;;5.60;4.00;;;;;;;;;;107704;1251;23749;-79
2023/07/13 08:21:45;;;;;;;6.00;4.30;;;;;;;;;;107710;1255;22644;-78
2023/07/13 08:24:11;;;;;;;10.50;5.70;;;;;;;;;;107659;1253;22526;-78
2023/07/13 08:26:37;;;;;;;10.80;4.90;;;;;;;;;;107658;1251;22530;-78
2023/07/13 08:29:04;;;;;;;11.20;4.60;;;;;;;;;;107707;1255;22641;-79
2023/07/13 08:31:30;;;;;;;8.10;3.90;;;;;;;;;;107610;1251;25377;-80
2023/07/13 08:33:57;;;;;;;7.70;3.90;;;;;;;;;;107669;1251;24371;-78
2023/07/13 08:36:25;;;;;;;10.40;6.80;;;;;;;;;;107770;1251;22525;-76
2023/07/13 08:38:51;;;;;;;11.40;5.10;;;;;;;;;;107633;1251;22627;-78
2023/07/13 08:41:17;;;;;;;8.40;6.30;;;;;;;;;;107719;1252;22580;-78
2023/07/13 08:43:46;;;;;;;5.60;4.40;;;;;;;;;;108643;1251;22352;-78
2023/07/13 08:46:17;;;;;;;10.50;5.10;;;;;;;;;;107637;1251;22706;-78
2023/07/13 08:48:44;;;;;;;8.00;5.00;;;;;;;;;;109252;1251;23066;-80
2023/07/13 08:51:22;;;;;;;8.40;5.00;;;;;;;;;;109003;1251;23527;-80
2023/07/13 08:53:49;;;;;;;8.30;5.10;;;;;;;;;;109300;1250;22467;-79
2023/07/13 08:56:19;;;;;;;9.90;5.10;;;;;;;;;;110496;1254;23075;-78
2023/07/13 08:58:46;;;;;;;6.40;4.70;;;;;;;;;;110379;1251;22950;-80
2023/07/13 09:01:18;;;;;;;11.60;5.70;;;;;;;;;;107670;1254;22555;-80
2023/07/13 09:03:54;;;;;;;11.30;6.10;;;;;;;;;;107524;1251;22658;-80
2023/07/13 09:06:21;;;;;;;9.60;6.00;;;;;;;;;;107517;1251;22547;-80
2023/07/13 09:08:51;;;;;;;9.10;5.70;;;;;;;;;;107786;1251;22535;-79
2023/07/13 09:11:23;;;;;;;8.70;7.30;;;;;;;;;;107726;1255;22629;-78
2023/07/13 09:13:56;;;;;;;9.20;6.60;;;;;;;;;;107796;1253;23082;-78
2023/07/13 09:16:23;;;;;;;11.90;7.50;;;;;;;;;;107664;1251;22548;-78
2023/07/13 09:18:50;;;;;;;16.00;8.60;;;;;;;;;;107713;1251;23262;-78
2023/07/13 09:21:17;;;;;;;7.40;5.60;;;;;;;;;;107534;1251;22642;-78
2023/07/13 09:23:43;;;;;;;10.70;5.60;;;;;;;;;;107689;1251;22583;-79
2023/07/13 09:26:14;;;;;;;7.90;5.90;;;;;;;;;;107734;1251;22607;-78
2023/07/13 09:29:01;;;;;;;13.90;7.10;;;;;;;;;;107714;1251;22644;-79
2023/07/13 09:31:34;;;;;;;10.50;8.90;;;;;;;;;;107708;1251;22556;-79
2023/07/13 09:34:00;;;;;;;10.40;5.70;;;;;;;;;;108519;1251;22258;-80
2023/07/13 09:36:28;;;;;;;7.30;4.40;;;;;;;;;;110580;1251;22459;-80
2023/07/13 09:39:05;;;;;;;7.50;4.60;;;;;;;;;;110491;1251;22447;-80
2023/07/13 09:41:47;;;;;;;7.80;4.50;;;;;;;;;;110592;1251;23026;-79
2023/07/13 09:44:14;;;;;;;7.80;4.60;;;;;;;;;;110598;1251;23027;-80
2023/07/13 09:46:45;;;;;;;9.50;5.40;;;;;;;;;;110620;1251;23100;-78
2023/07/13 09:49:12;;;;;;;8.10;6.00;;;;;;;;;;110584;1251;22406;-79
2023/07/13 09:51:40;;;;;;;7.60;4.80;;;;;;;;;;110564;1251;22387;-80
2023/07/13 09:54:14;;;;;;;11.30;6.90;;;;;;;;;;110484;1251;22515;-79
2023/07/13 09:56:41;;;;;;;9.10;5.50;;;;;;;;;;110518;1250;22573;-80
2023/07/13 09:59:17;;;;;;;7.60;5.10;;;;;;;;;;110605;1250;22474;-80
2023/07/13 10:01:44;;;;;;;10.40;6.20;;;;;;;;;;110493;1256;22476;-80
2023/07/13 10:04:12;;;;;;;8.50;4.30;;;;;;;;;;110547;1251;22461;-79
2023/07/13 10:06:42;;;;;;;14.10;7.30;;;;;;;;;;110547;1251;22473;-80
2023/07/13 10:09:09;;;;;;;8.90;4.90;;;;;;;;;;110547;1251;22454;-80
2023/07/13 10:11:36;;;;;;;7.30;4.70;;;;;;;;;;110574;1251;22518;-80
2023/07/13 10:14:09;;;;;;;9.40;5.00;;;;;;;;;;110564;1251;22361;-80
2023/07/13 10:16:36;;;;;;;8.50;5.40;;;;;;;;;;110582;1251;23491;-79
2023/07/13 10:19:03;;;;;;;9.50;5.90;;;;;;;;;;110600;1254;22488;-79
2023/07/13 10:21:38;;;;;;;8.00;4.90;;;;;;;;;;110524;1251;22433;-79
2023/07/13 10:24:05;;;;;;;8.40;5.60;;;;;;;;;;110652;1251;22266;-80
2023/07/13 10:26:32;;;;;;;6.50;5.50;;;;;;;;;;110460;1251;22572;-79
2023/07/13 10:28:59;;;;;;;8.00;5.40;;;;;;;;;;108359;1251;24399;-79
2023/07/13 10:31:26;;;;;;;9.40;5.80;;;;;;;;;;108082;1251;22564;-80
2023/07/13 10:33:52;;;;;;;13.50;6.00;;;;;;;;;;107599;1251;22533;-78
2023/07/13 10:36:30;;;;;;;10.80;6.20;;;;;;;;;;107753;1251;26110;-78
2023/07/13 10:38:57;;;;;;;10.60;5.10;;;;;;;;;;107683;1256;22503;-78
2023/07/13 10:41:24;;;;;;;6.70;5.40;;;;;;;;;;107500;1251;22603;-80
2023/07/13 10:43:51;;;;;;;12.80;6.20;;;;;;;;;;108094;1251;23088;-80
2023/07/13 10:46:18;;;;;;;9.40;5.70;;;;;;;;;;110488;1251;22557;-78
2023/07/13 10:48:44;;;;;;;7.50;4.40;;;;;;;;;;110491;1251;22591;-78
2023/07/13 10:51:14;;;;;;;11.00;6.70;;;;;;;;;;110651;1254;22460;-78
2023/07/13 10:53:41;;;;;;;10.40;6.60;;;;;;;;;;110618;1251;22370;-80
2023/07/13 10:56:12;;;;;;;14.50;7.90;;;;;;;;;;110515;1251;22493;-78
2023/07/13 10:58:39;;;;;;;8.80;6.50;;;;;;;;;;110575;1251;22489;-80
2023/07/13 11:01:05;;;;;;;7.70;5.30;;;;;;;;;;107870;1251;25275;-78
2023/07/13 11:03:36;;;;;;;5.80;4.70;;;;;;;;;;107597;1251;24277;-81
2023/07/13 11:06:08;;;;;;;7.30;4.10;;;;;;;;;;107697;1251;22531;-78
2023/07/13 11:08:51;;;;;;;9.40;4.80;;;;;;;;;;109529;1251;22308;-78
2023/07/13 11:11:27;;;;;;;6.90;3.20;;;;;;;;;;108890;1254;25494;-80
2023/07/13 11:13:53;;;;;;;6.60;3.70;;;;;;;;;;107615;1251;22526;-77
2023/07/13 11:16:20;;;;;;;8.10;3.80;;;;;;;;;;107690;1251;24374;-79
2023/07/13 11:18:47;;;;;;;3.90;3.10;;;;;;;;;;107676;1251;24194;-79
2023/07/13 11:21:15;;;;;;;8.30;3.50;;;;;;;;;;107622;1251;24072;-77
2023/07/13 11:23:42;;;;;;;5.90;2.80;;;;;;;;;;108937;1251;22268;-78
2023/07/13 11:26:27;;;;;;;3.70;2.80;;;;;;;;;;107744;1251;22711;-79
2023/07/13 11:28:54;;;;;;;8.20;3.30;;;;;;;;;;109330;1251;22514;-79
2023/07/13 11:31:22;;;;;;;6.20;3.20;;;;;;;;;;108137;1251;22547;-80
2023/07/13 11:33:49;;;;;;;;;;;;;;;;;;107543;1251;24334;-77
2023/07/13 11:36:16;;;;;;;5.10;3.30;;;;;;;;;;107769;1251;25819;-77
2023/07/13 11:38:51;;;;;;;14.30;5.70;;;;;;;;;;107582;1251;22941;-78
2023/07/13 11:41:25;;;;;;;5.90;3.30;;;;;;;;;;107725;1254;26354;-80
2023/07/13 11:43:56;;;;;;;4.60;2.80;;;;;;;;;;107450;1251;22614;-79
2023/07/13 11:46:23;;;;;;;5.80;3.80;;;;;;;;;;107749;1250;24299;-77
2023/07/13 11:48:50;;;;;;;4.10;3.20;;;;;;;;;;107685;1251;22864;-79
2023/07/13 11:51:23;;;;;;;4.10;2.80;;;;;;;;;;107621;1251;24235;-77
2023/07/13 11:53:50;;;;;;;6.00;3.00;;;;;;;;;;107669;1251;22534;-77
2023/07/13 11:56:17;;;;;;;3.60;2.60;;;;;;;;;;107712;1251;22657;-78
2023/07/13 11:58:43;;;;;;;29.90;3.20;;;;;;;;;;107508;1251;22671;-78
2023/07/13 12:01:16;;;;;;;4.90;3.30;;;;;;;;;;107522;1251;25459;-77
2023/07/13 12:03:42;;;;;;;4.40;2.80;;;;;;;;;;107463;1257;23324;-78
2023/07/13 12:06:23;;;;;;;7.70;3.00;;;;;;;;;;107728;1251;22528;-79
2023/07/13 12:08:49;;;;;;;5.80;3.10;;;;;;;;;;109124;1251;22342;-79
2023/07/13 12:11:16;;;;;;;5.00;2.90;;;;;;;;;;108252;1251;24206;-77
2023/07/13 12:13:44;;;;;;;4.00;2.80;;;;;;;;;;109616;1251;22537;-79
2023/07/13 12:16:15;;;;;;;7.40;3.40;;;;;;;;;;107733;1254;22534;-79
2023/07/13 12:18:44;;;;;;;4.80;2.70;;;;;;;;;;107739;1251;25399;-79
2023/07/13 12:21:12;;;;;;;3.50;2.40;;;;;;;;;;108248;1251;22569;-80
2023/07/13 12:23:39;;;;;;;4.00;2.20;;;;;;;;;;107588;1251;23929;-79
2023/07/13 12:26:06;;;;;;;3.70;2.60;;;;;;;;;;107509;1250;24706;-77
2023/07/13 12:28:33;;;;;;;5.20;2.60;;;;;;;;;;107601;1251;24356;-79
2023/07/13 12:31:01;;;;;;;4.30;2.40;;;;;;;;;;107601;1251;22554;-80
2023/07/13 12:33:32;;;;;;;3.80;2.50;;;;;;;;;;107649;1254;22658;-79
2023/07/13 12:36:02;;;;;;;2.60;2.10;;;;;;;;;;107766;1251;24414;-77
2023/07/13 12:38:30;;;;;;;4.90;2.50;;;;;;;;;;107812;1251;23910;-77
2023/07/13 12:40:57;;;;;;;5.20;2.40;;;;;;;;;;107653;1252;23169;-77
2023/07/13 12:43:24;;;;;;;2.50;2.10;;;;;;;;;;107621;1251;22652;-77
2023/07/13 12:46:03;;;;;;;5.10;2.60;;;;;;;;;;107436;1256;22542;-79
2023/07/13 12:48:30;;;;;;;2.30;1.80;;;;;;;;;;107726;1251;23006;-77
2023/07/13 12:50:56;;;;;;;2.50;1.90;;;;;;;;;;107595;1251;22744;-79
2023/07/13 12:53:23;;;;;;;2.50;1.90;;;;;;;;;;107446;1256;25386;-79
2023/07/13 12:55:50;;;;;;;2.90;1.70;;;;;;;;;;107664;1251;27408;-77
2023/07/13 12:58:19;;;;;;;3.00;1.80;;;;;;;;;;107698;1251;22538;-77
2023/07/13 13:00:49;;;;;;;2.90;1.90;;;;;;;;;;107819;1251;22538;-77
2023/07/13 13:03:36;;;;;;;2.40;1.90;;;;;;;;;;107584;1251;22620;-79
2023/07/13 13:06:04;;;;;;;2.50;1.60;;;;;;;;;;107664;1251;22647;-80
2023/07/13 13:08:31;;;;;;;4.50;2.40;;;;;;;;;;107659;1251;22579;-77
2023/07/13 13:10:58;;;;;;;2.80;2.00;;;;;;;;;;107646;1251;23746;-79
2023/07/13 13:13:24;;;;;;;4.00;2.30;;;;;;;;;;107801;1251;22540;-78
2023/07/13 13:15:52;;;;;;;5.70;2.60;;;;;;;;;;107864;1251;22537;-80
2023/07/13 13:18:19;;;;;;;4.90;3.00;;;;;;;;;;107853;1251;24362;-77
2023/07/13 13:20:46;;;;;;;2.70;2.30;;;;;;;;;;107623;1251;22611;-79
2023/07/13 13:23:13;;;;;;;3.40;2.00;;;;;;;;;;107862;1251;22534;-78
2023/07/13 13:25:40;;;;;;;2.40;1.70;;;;;;;;;;107890;1250;23735;-80
2023/07/13 13:28:09;;;;;;;3.80;2.00;;;;;;;;;;107839;1251;22683;-77
2023/07/13 13:30:36;;;;;;;3.30;1.80;;;;;;;;;;107800;1251;22531;-81
2023/07/13 13:33:03;;;;;;;3.20;1.80;;;;;;;;;;107677;1251;22989;-80
2023/07/13 13:35:30;;;;;;;2.40;1.70;;;;;;;;;;107725;1251;22574;-80
2023/07/13 13:37:56;;;;;;;4.10;2.00;;;;;;;;;;107845;1251;23329;-78
2023/07/13 13:40:22;;;;;;;3.20;2.20;;;;;;;;;;107768;1251;25141;-80
2023/07/13 13:42:49;;;;;;;3.90;2.20;;;;;;;;;;107620;1251;22544;-80
2023/07/13 13:45:17;;;;;;;3.10;2.80;;;;;;;;;;107624;1251;23928;-78
2023/07/13 13:47:44;;;;;;;5.00;1.90;;;;;;;;;;107839;1251;22559;-78
2023/07/13 13:50:14;;;;;;;3.90;2.00;;;;;;;;;;107618;1251;23378;-78
2023/07/13 13:52:41;;;;;;;2.70;1.80;;;;;;;;;;107628;1251;22683;-79
2023/07/13 13:55:14;;;;;;;3.60;1.90;;;;;;;;;;107611;1251;24379;-78
2023/07/13 13:57:40;;;;;;;3.30;1.80;;;;;;;;;;107763;1251;25259;-80
2023/07/13 14:00:14;;;;;;;2.30;1.40;;;;;;;;;;107571;1251;22479;-78
2023/07/13 14:02:40;;;;;;;2.00;1.50;;;;;;;;;;107588;1255;25333;-78
2023/07/13 14:05:10;;;;;;;3.70;2.00;;;;;;;;;;107765;1251;23259;-78
2023/07/13 14:07:36;;;;;;;2.30;1.60;;;;;;;;;;107587;1251;23196;-77
2023/07/13 14:10:06;;;;;;;3.50;1.70;;;;;;;;;;107671;1251;22524;-78
2023/07/13 14:12:33;;;;;;;3.50;1.80;;;;;;;;;;107631;1251;22611;-80
2023/07/13 14:14:59;;;;;;;4.10;1.60;;;;;;;;;;107648;1251;23323;-78
2023/07/13 14:17:26;;;;;;;2.90;1.80;;;;;;;;;;107680;1251;24273;-80
2023/07/13 14:19:57;;;;;;;4.60;1.90;;;;;;;;;;107596;1251;24490;-77
2023/07/13 14:22:24;;;;;;;2.50;2.00;;;;;;;;;;107349;1251;24272;-77
2023/07/13 14:24:54;;;;;;;5.00;2.70;;;;;;;;;;107778;1251;25500;-78
2023/07/13 14:27:20;;;;;;;3.50;1.80;;;;;;;;;;107625;1251;25320;-80
2023/07/13 14:29:47;;;;;;;3.70;2.10;;;;;;;;;;107504;1251;24052;-78
2023/07/13 14:32:13;;;;;;;3.50;2.00;;;;;;;;;;107622;1255;25370;-80
2023/07/13 14:34:40;;;;;;;4.90;1.90;;;;;;;;;;107691;1251;22550;-78